Aviation Digital Data Service (ADDS)

Output produced by METARs form (2116 UTC 31 January 2023)
found at http://www.aviationweather.gov/metar/data/
 
METAR text: KRNH 312055Z AUTO 19009KT 10SM SCT042 M13/M17 A3017 RMK AO2 T11341174
Conditions at: KRNH (NEW RICHMOND MUN, WI, US) observed 2055 UTC 31 January 2023
Temperature: -13.4°C ( 8°F)
Dewpoint: -17.4°C ( 1°F) [RH = 72%]
Pressure (altimeter): 30.17 inches Hg (1021.8 mb)
Winds: from the S (190 degrees) at 10 MPH (9 knots; 4.6 m/s)
Visibility: 10 or more miles (16+ km)
Ceiling: at least 12,000 feet AGL
Clouds: scattered clouds at 4200 feet AGL
Weather: automated observation with no human augmentation;
there may or may not be significant weather present at this time

METAR text: KRNH 312035Z AUTO 19008KT 10SM BKN042 M14/M18 A3017 RMK AO2 T11361177
Conditions at: KRNH (NEW RICHMOND MUN, WI, US) observed 2035 UTC 31 January 2023
Temperature: -13.6°C ( 8°F)
Dewpoint: -17.7°C ( 0°F) [RH = 71%]
Pressure (altimeter): 30.17 inches Hg (1021.8 mb)
Winds: from the S (190 degrees) at 9 MPH (8 knots; 4.1 m/s)
Visibility: 10 or more miles (16+ km)
Ceiling: 4200 feet AGL
Clouds: broken clouds at 4200 feet AGL
Weather: automated observation with no human augmentation;
there may or may not be significant weather present at this time

Forecast for: KRNH (NEW RICHMOND MUN, WI, US)
Text: KRNH 311720Z 3118/0118 22008KT P6SM BKN045
Forecast period: 1800 to 2200 UTC 31 January 2023
Forecast type: FROM: standard forecast or significant change
Winds: from the SW (220 degrees) at 9 MPH (8 knots; 4.1 m/s)
Visibility: 6 or more miles (10+ km)
Ceiling: 4500 feet AGL
Clouds: broken clouds at 4500 feet AGL
Weather: no significant weather forecast for this period
Text: FM312200 22008KT P6SM SKC
Forecast period: 2200 UTC 31 January 2023 to 0400 UTC 01 February 2023
Forecast type: FROM: standard forecast or significant change
Winds: from the SW (220 degrees) at 9 MPH (8 knots; 4.1 m/s)
Visibility: 6 or more miles (10+ km)
Clouds: clear skies
Weather: no significant weather forecast for this period
Text: FM010400 VRB03KT P6SM BKN150
Forecast period: 0400 to 1800 UTC 01 February 2023
Forecast type: FROM: standard forecast or significant change
Winds: variable direction winds at 3 MPH (3 knots; 1.5 m/s)
Visibility: 6 or more miles (10+ km)
Ceiling: 15000 feet AGL
Clouds: broken clouds at 15000 feet AGL
Weather: no significant weather forecast for this period